createdAt,value
2019-01-21T00:01:56.034Z,12.90
2019-01-21T00:04:27.567Z,10.83
2019-01-21T00:07:00.163Z,9.93
2019-01-21T00:09:31.779Z,13.53
2019-01-21T00:12:04.677Z,12.20
2019-01-21T00:14:36.136Z,11.03
2019-01-21T00:17:09.273Z,12.10
2019-01-21T00:19:41.978Z,14.33
2019-01-21T00:22:13.213Z,15.90
2019-01-21T00:24:46.149Z,14.27
2019-01-21T00:27:17.367Z,12.50
2019-01-21T00:29:49.498Z,12.27
2019-01-21T00:32:22.282Z,9.73
2019-01-21T00:34:54.617Z,11.67
2019-01-21T00:37:27.011Z,12.70
2019-01-21T00:39:58.244Z,8.93
2019-01-21T00:42:29.467Z,11.50
2019-01-21T00:45:02.798Z,11.70
2019-01-21T00:47:36.215Z,11.83
2019-01-21T00:50:09.102Z,11.37
2019-01-21T00:52:41.365Z,12.87
2019-01-21T00:55:15.467Z,12.03
2019-01-21T00:57:48.402Z,11.10
2019-01-21T01:00:23.162Z,10.53
2019-01-21T01:02:58.562Z,9.70
2019-01-21T01:05:31.370Z,12.40
2019-01-21T01:08:02.689Z,12.70
2019-01-21T01:10:34.303Z,12.60
2019-01-21T01:13:09.557Z,14.20
2019-01-21T01:15:41.279Z,16.37
2019-01-21T01:18:12.586Z,14.80
2019-01-21T01:20:43.798Z,13.63
2019-01-21T01:23:17.358Z,14.90
2019-01-21T01:25:51.240Z,15.23
2019-01-21T01:28:22.490Z,15.63
2019-01-21T01:30:56.397Z,15.30
2019-01-21T01:33:29.407Z,16.43
2019-01-21T01:36:03.866Z,17.00
2019-01-21T01:38:37.693Z,15.93
2019-01-21T01:41:11.446Z,15.37
2019-01-21T01:43:45.392Z,12.77
2019-01-21T01:46:19.481Z,12.93
2019-01-21T01:48:53.417Z,15.30
2019-01-21T01:51:24.737Z,16.13
2019-01-21T01:53:57.520Z,14.40
2019-01-21T01:56:31.236Z,16.40
2019-01-21T01:59:02.503Z,15.27
2019-01-21T02:01:34.392Z,15.33
2019-01-21T02:04:05.626Z,16.00
2019-01-21T02:06:37.844Z,13.07
2019-01-21T02:09:13.305Z,12.47
2019-01-21T02:11:44.717Z,11.90
2019-01-21T02:14:18.849Z,12.07
2019-01-21T02:16:52.624Z,12.77
2019-01-21T02:19:30.435Z,12.67
2019-01-21T02:22:01.683Z,11.83
2019-01-21T02:24:37.833Z,16.10
2019-01-21T02:27:20.729Z,13.80
2019-01-21T02:30:35.834Z,14.70
2019-01-21T02:33:47.218Z,10.80
2019-01-21T02:37:00.659Z,10.07
2019-01-21T02:39:50.917Z,11.00
2019-01-21T02:42:57.012Z,12.67
2019-01-21T02:46:07.625Z,11.97
2019-01-21T02:49:05.853Z,12.83
2019-01-21T02:52:18.380Z,10.20
2019-01-21T02:55:06.960Z,10.30
2019-01-21T02:58:12.171Z,11.27
2019-01-21T03:01:00.942Z,10.00
2019-01-21T03:04:24.420Z,11.90
2019-01-21T03:07:27.360Z,11.47
2019-01-21T03:10:23.047Z,9.40
2019-01-21T03:13:16.276Z,10.03
2019-01-21T03:16:16.435Z,9.90
2019-01-21T03:19:13.507Z,10.30
2019-01-21T03:22:38.642Z,10.53
2019-01-21T03:25:58.645Z,11.80
2019-01-21T03:29:12.972Z,14.73
2019-01-21T03:32:36.821Z,15.83
2019-01-21T03:35:38.362Z,13.80
2019-01-21T03:38:46.646Z,12.87
2019-01-21T03:42:02.238Z,12.53
2019-01-21T03:45:32.031Z,12.47
2019-01-21T03:48:28.782Z,17.47
2019-01-21T03:51:50.932Z,20.50
2019-01-21T03:54:29.936Z,22.53
2019-01-21T03:57:33.835Z,20.17
2019-01-21T04:00:43.232Z,13.00
2019-01-21T04:03:46.594Z,11.33
2019-01-21T04:06:27.382Z,11.60
2019-01-21T04:09:32.950Z,10.90
2019-01-21T04:12:34.383Z,10.90
2019-01-21T04:15:25.496Z,13.70
2019-01-21T04:18:24.843Z,11.83
2019-01-21T04:21:54.867Z,11.53
2019-01-21T04:24:46.469Z,9.27
2019-01-21T04:27:54.812Z,11.50
2019-01-21T04:31:03.269Z,13.40
2019-01-21T04:34:08.716Z,13.67
2019-01-21T04:37:13.216Z,12.50
2019-01-21T04:40:14.953Z,12.57
2019-01-21T04:43:25.329Z,12.03
2019-01-21T04:46:29.784Z,11.87
2019-01-21T04:49:39.091Z,11.37
2019-01-21T04:52:59.423Z,11.30
2019-01-21T04:56:06.214Z,11.30
2019-01-21T04:59:04.499Z,10.57
2019-01-21T05:02:20.431Z,10.63
2019-01-21T05:05:04.631Z,12.67
2019-01-21T05:08:23.214Z,13.23
2019-01-21T05:11:15.629Z,11.60
2019-01-21T05:14:23.459Z,11.63
2019-01-21T05:17:32.440Z,12.10
2019-01-21T05:20:47.885Z,12.87
2019-01-21T05:24:12.215Z,11.97
2019-01-21T05:27:16.018Z,13.60
2019-01-21T05:30:27.394Z,10.93
2019-01-21T05:33:52.739Z,11.73
2019-01-21T05:37:02.958Z,13.47
2019-01-21T05:39:49.071Z,13.30
2019-01-21T05:42:51.138Z,11.50
2019-01-21T05:45:58.468Z,14.07
2019-01-21T05:49:16.461Z,13.80
2019-01-21T05:52:50.956Z,17.50
2019-01-21T05:55:59.607Z,17.10
2019-01-21T05:59:20.741Z,13.10
2019-01-21T06:02:21.476Z,14.43
2019-01-21T06:05:28.585Z,14.50
2019-01-21T06:08:40.003Z,13.00
2019-01-21T06:11:38.766Z,12.47
2019-01-21T06:15:04.625Z,13.13
2019-01-21T06:18:24.712Z,14.13
2019-01-21T06:21:42.036Z,12.90
2019-01-21T06:24:57.554Z,13.23
2019-01-21T06:28:04.274Z,11.57
2019-01-21T06:31:21.172Z,12.70
2019-01-21T06:34:30.675Z,13.33
2019-01-21T06:37:18.927Z,15.63
2019-01-21T06:40:31.602Z,15.23
2019-01-21T06:43:42.781Z,13.33
2019-01-21T06:47:10.991Z,17.83
2019-01-21T06:50:13.018Z,20.40
2019-01-21T06:53:14.280Z,18.27
2019-01-21T06:56:14.139Z,20.50
2019-01-21T06:59:08.368Z,18.73
2019-01-21T07:02:19.742Z,16.23
2019-01-21T07:05:32.930Z,16.10
2019-01-21T07:08:44.028Z,11.90
2019-01-21T07:11:45.782Z,12.60
2019-01-21T07:14:58.330Z,14.40
2019-01-21T07:18:19.682Z,14.30
2019-01-21T07:21:25.937Z,24.83
2019-01-21T07:24:39.017Z,21.70
2019-01-21T07:27:49.811Z,14.33
2019-01-21T07:31:02.651Z,15.70
2019-01-21T07:34:05.810Z,17.27
2019-01-21T07:37:37.028Z,18.33
2019-01-21T07:40:56.375Z,16.17
2019-01-21T07:44:33.273Z,14.83
2019-01-21T07:47:58.094Z,13.50
2019-01-21T07:51:15.372Z,13.57
2019-01-21T07:54:19.516Z,13.47
2019-01-21T07:57:27.261Z,13.87
2019-01-21T08:00:35.119Z,13.23
2019-01-21T08:03:42.055Z,16.20
2019-01-21T08:06:26.498Z,17.60
2019-01-21T08:09:23.660Z,16.53
2019-01-21T08:12:39.626Z,18.90
2019-01-21T08:15:42.385Z,17.23
2019-01-21T08:19:11.403Z,16.83
2019-01-21T08:22:47.418Z,18.97
2019-01-21T08:26:00.182Z,35.50
2019-01-21T08:29:07.051Z,28.40
2019-01-21T08:32:26.406Z,23.13
2019-01-21T08:35:21.540Z,21.40
2019-01-21T08:38:26.674Z,20.80
2019-01-21T08:41:29.445Z,24.00
2019-01-21T08:44:43.648Z,29.93
2019-01-21T08:47:40.220Z,45.53
2019-01-21T08:50:49.156Z,24.20
2019-01-21T08:53:57.823Z,27.27
2019-01-21T08:57:20.267Z,41.87
2019-01-21T09:00:30.223Z,37.97
2019-01-21T09:03:35.864Z,57.47
2019-01-21T09:06:45.786Z,41.77
2019-01-21T09:09:56.258Z,30.00
2019-01-21T09:13:13.215Z,29.83
2019-01-21T09:16:12.165Z,38.57
2019-01-21T09:19:25.811Z,34.60
2019-01-21T09:22:38.813Z,60.70
2019-01-21T09:25:52.436Z,36.30
2019-01-21T09:28:37.857Z,38.30
2019-01-21T09:31:54.727Z,28.20
2019-01-21T09:35:05.535Z,31.47
2019-01-21T09:38:21.539Z,29.60
2019-01-21T09:41:25.422Z,26.30
2019-01-21T09:44:14.649Z,28.40
2019-01-21T09:46:45.873Z,28.70
2019-01-21T09:49:15.998Z,26.33
2019-01-21T09:52:11.910Z,24.63
2019-01-21T09:54:43.762Z,22.00
2019-01-21T09:57:22.638Z,37.83
2019-01-21T09:59:57.627Z,23.07
2019-01-21T10:02:43.993Z,20.90
2019-01-21T10:05:18.950Z,20.57
2019-01-21T10:08:39.281Z,19.63
2019-01-21T10:11:29.575Z,18.10
2019-01-21T10:14:39.637Z,18.10
2019-01-21T10:17:49.467Z,16.23
2019-01-21T10:21:01.947Z,17.20
2019-01-21T10:24:13.831Z,17.53
2019-01-21T10:27:37.514Z,17.10
2019-01-21T10:30:57.018Z,19.40
2019-01-21T10:33:58.475Z,18.03
2019-01-21T10:37:08.644Z,18.30
2019-01-21T10:40:22.330Z,18.80
2019-01-21T10:43:24.535Z,18.20
2019-01-21T10:46:08.794Z,16.73
2019-01-21T10:49:12.586Z,15.80
2019-01-21T10:52:20.526Z,16.80
2019-01-21T10:55:03.872Z,16.53
2019-01-21T10:57:47.588Z,20.60
2019-01-21T11:00:49.380Z,18.07
2019-01-21T11:04:04.827Z,21.40
2019-01-21T11:07:00.286Z,21.13
2019-01-21T11:10:00.286Z,19.47
2019-01-21T11:13:04.748Z,20.13
2019-01-21T11:15:51.117Z,19.47
2019-01-21T11:18:47.558Z,21.97
2019-01-21T11:21:44.692Z,23.17
2019-01-21T11:25:04.369Z,22.00
2019-01-21T11:27:54.479Z,19.33
2019-01-21T11:31:03.136Z,18.87
2019-01-21T11:33:49.174Z,22.70
2019-01-21T11:36:58.159Z,20.00
2019-01-21T11:40:08.796Z,20.47
2019-01-21T11:43:40.250Z,18.60
2019-01-21T11:46:23.610Z,21.30
2019-01-21T11:49:17.513Z,18.03
2019-01-21T11:52:10.068Z,16.67
2019-01-21T11:55:11.101Z,19.43
2019-01-21T11:58:15.216Z,19.43
2019-01-21T12:01:32.598Z,16.70
2019-01-21T12:04:15.768Z,16.73
2019-01-21T12:06:55.482Z,15.10
2019-01-21T12:10:03.967Z,16.87
2019-01-21T12:13:15.490Z,15.73
2019-01-21T12:16:21.132Z,20.20
2019-01-21T12:19:16.335Z,15.43
2019-01-21T12:22:36.882Z,16.70
2019-01-21T12:25:26.120Z,19.47
2019-01-21T12:28:38.986Z,19.83
2019-01-21T12:32:09.765Z,27.70
2019-01-21T12:35:05.616Z,23.73
2019-01-21T12:38:23.146Z,20.03
2019-01-21T12:41:44.239Z,24.10
2019-01-21T12:44:49.350Z,17.10
2019-01-21T12:47:40.416Z,22.27
2019-01-21T12:51:01.096Z,17.40
2019-01-21T12:54:15.430Z,15.30
2019-01-21T12:57:41.638Z,15.83
2019-01-21T13:00:43.148Z,14.47
2019-01-21T13:03:51.231Z,13.87
2019-01-21T13:06:53.185Z,12.80
2019-01-21T13:09:40.379Z,14.20
2019-01-21T13:12:42.323Z,13.03
2019-01-21T13:15:42.604Z,12.00
2019-01-21T13:19:04.847Z,12.87
2019-01-21T13:22:14.967Z,11.30
2019-01-21T13:25:14.255Z,11.67
2019-01-21T13:28:37.544Z,12.23
2019-01-21T13:31:27.770Z,12.77
2019-01-21T13:34:45.334Z,12.97
2019-01-21T13:37:43.364Z,19.43
2019-01-21T13:40:51.203Z,16.10
2019-01-21T13:43:50.829Z,18.80
2019-01-21T13:46:45.277Z,19.93
2019-01-21T13:49:28.001Z,18.80
2019-01-21T13:52:44.711Z,19.77
2019-01-21T13:55:26.552Z,18.57
2019-01-21T13:58:37.360Z,16.67
2019-01-21T14:01:41.649Z,16.07
2019-01-21T14:04:54.356Z,16.53
2019-01-21T14:08:20.604Z,19.57
2019-01-21T14:11:30.044Z,24.47
2019-01-21T14:14:35.315Z,17.53
2019-01-21T14:17:24.336Z,21.33
2019-01-21T14:20:44.714Z,21.33
2019-01-21T14:23:44.395Z,14.67
2019-01-21T14:26:36.715Z,13.30
2019-01-21T14:30:02.687Z,16.30
2019-01-21T14:33:13.039Z,17.40
2019-01-21T14:36:18.649Z,18.30
2019-01-21T14:39:22.692Z,20.13
2019-01-21T14:42:31.733Z,20.77
2019-01-21T14:45:28.289Z,20.23
2019-01-21T14:48:38.978Z,23.40
2019-01-21T14:52:17.340Z,21.60
2019-01-21T14:55:27.530Z,26.50
2019-01-21T14:58:30.953Z,24.77
2019-01-21T15:01:40.950Z,27.20
2019-01-21T15:04:59.163Z,22.07
2019-01-21T15:08:01.020Z,22.23
2019-01-21T15:11:28.252Z,22.53
2019-01-21T15:14:20.531Z,19.63
2019-01-21T15:17:21.776Z,21.67
2019-01-21T15:20:30.200Z,19.53
2019-01-21T15:23:37.624Z,17.30
2019-01-21T15:26:44.986Z,16.00
2019-01-21T15:29:45.171Z,16.87
2019-01-21T15:32:49.533Z,18.20
2019-01-21T15:36:13.648Z,16.30
2019-01-21T15:39:28.874Z,15.30
2019-01-21T15:42:41.559Z,15.27
2019-01-21T15:46:15.372Z,15.83
2019-01-21T15:49:13.429Z,14.77
2019-01-21T15:52:17.365Z,15.13
2019-01-21T15:55:27.041Z,14.37
2019-01-21T15:58:42.842Z,15.87
2019-01-21T16:01:52.257Z,15.20
2019-01-21T16:04:37.103Z,13.90
2019-01-21T16:07:32.511Z,15.40
2019-01-21T16:10:57.070Z,17.70
2019-01-21T16:13:43.237Z,24.70
2019-01-21T16:16:50.099Z,18.77
2019-01-21T16:19:36.412Z,15.17
2019-01-21T16:22:41.147Z,16.43
2019-01-21T16:25:44.042Z,20.20
2019-01-21T16:28:41.411Z,21.63
2019-01-21T16:32:11.344Z,28.03
2019-01-21T16:35:25.198Z,17.50
2019-01-21T16:38:39.081Z,18.07
2019-01-21T16:42:00.990Z,18.00
2019-01-21T16:44:32.470Z,16.77
2019-01-21T16:47:03.851Z,16.70
2019-01-21T16:49:38.677Z,18.80
2019-01-21T16:52:10.302Z,16.23
2019-01-21T16:54:43.358Z,17.33
2019-01-21T16:57:16.026Z,17.80
2019-01-21T16:59:47.285Z,17.07
2019-01-21T17:02:21.259Z,20.20
2019-01-21T17:04:54.558Z,17.60
2019-01-21T17:07:25.967Z,19.17
2019-01-21T17:10:00.685Z,21.60
2019-01-21T17:12:33.604Z,21.23
2019-01-21T17:15:08.764Z,23.70
2019-01-21T17:17:41.546Z,20.10
2019-01-21T17:20:19.090Z,23.20
2019-01-21T17:22:52.858Z,21.00
2019-01-21T17:25:25.492Z,19.90
2019-01-21T17:27:57.491Z,21.87
2019-01-21T17:30:30.309Z,19.60
2019-01-21T17:33:02.659Z,17.97
2019-01-21T17:35:36.750Z,19.33
2019-01-21T17:38:09.637Z,18.40
2019-01-21T17:40:41.829Z,20.60
2019-01-21T17:43:15.846Z,18.90
2019-01-21T17:45:49.243Z,19.30
2019-01-21T17:48:22.722Z,22.40
2019-01-21T17:50:56.755Z,22.50
2019-01-21T17:53:30.778Z,22.57
2019-01-21T17:56:03.838Z,34.70
2019-01-21T17:58:39.789Z,32.40
2019-01-21T18:01:12.806Z,37.83
2019-01-21T18:03:46.656Z,28.07
2019-01-21T18:06:17.890Z,31.97
2019-01-21T18:08:52.180Z,26.80
2019-01-21T18:11:27.525Z,27.40
2019-01-21T18:13:59.916Z,24.20
2019-01-21T18:16:31.157Z,24.30
2019-01-21T18:19:03.733Z,21.83
2019-01-21T18:21:40.228Z,22.17
2019-01-21T18:24:11.555Z,20.77
2019-01-21T18:26:43.877Z,17.70
2019-01-21T18:29:17.872Z,18.60
2019-01-21T18:31:54.193Z,22.13
2019-01-21T18:34:25.913Z,19.97
2019-01-21T18:37:01.641Z,21.47
2019-01-21T18:39:32.973Z,19.20
2019-01-21T18:42:07.256Z,21.07
2019-01-21T18:44:39.298Z,18.30
2019-01-21T18:47:13.100Z,22.10
2019-01-21T18:49:44.603Z,24.90
2019-01-21T18:52:18.016Z,22.07
2019-01-21T18:54:51.872Z,17.70
2019-01-21T18:57:23.219Z,20.30
2019-01-21T18:59:57.093Z,18.63
2019-01-21T19:02:31.746Z,18.60
2019-01-21T19:05:04.690Z,17.63
2019-01-21T19:07:36.113Z,19.63
2019-01-21T19:10:08.805Z,20.97
2019-01-21T19:12:41.280Z,20.27
2019-01-21T19:15:18.605Z,17.67
2019-01-21T19:17:52.205Z,17.53
2019-01-21T19:20:26.049Z,18.77
2019-01-21T19:22:57.381Z,16.50
2019-01-21T19:25:30.182Z,19.73
2019-01-21T19:28:02.552Z,17.57
2019-01-21T19:30:36.138Z,17.57
2019-01-21T19:33:07.753Z,18.23
2019-01-21T19:35:41.216Z,18.43
2019-01-21T19:38:13.040Z,18.93
2019-01-21T19:40:46.293Z,19.47
2019-01-21T19:43:20.500Z,17.47
2019-01-21T19:45:54.804Z,17.83
2019-01-21T19:48:28.216Z,18.40
2019-01-21T19:51:02.280Z,18.37
2019-01-21T19:53:39.056Z,17.10
2019-01-21T19:56:10.342Z,16.90
2019-01-21T19:58:45.796Z,16.30
2019-01-21T20:01:19.607Z,18.23
2019-01-21T20:03:53.343Z,19.37
2019-01-21T20:06:26.415Z,19.43
2019-01-21T20:09:00.149Z,16.00
2019-01-21T20:11:34.826Z,17.57
2019-01-21T20:14:04.420Z,16.67
2019-01-21T20:16:36.325Z,17.40
2019-01-21T20:19:10.389Z,18.47
2019-01-21T20:21:44.277Z,18.13
2019-01-21T20:24:18.314Z,18.23
2019-01-21T20:26:52.288Z,17.47
2019-01-21T20:29:28.106Z,18.00
2019-01-21T20:31:59.526Z,16.20
2019-01-21T20:34:31.516Z,16.30
2019-01-21T20:37:03.945Z,16.87
2019-01-21T20:39:35.642Z,15.33
2019-01-21T20:42:07.656Z,16.70
2019-01-21T20:44:40.578Z,17.00
2019-01-21T20:47:13.550Z,15.77
2019-01-21T20:49:45.933Z,16.53
2019-01-21T20:52:19.630Z,16.77
2019-01-21T20:54:53.701Z,16.80
2019-01-21T20:57:27.642Z,15.80
2019-01-21T21:00:03.123Z,14.63
2019-01-21T21:02:34.816Z,15.93
2019-01-21T21:05:07.036Z,18.10
2019-01-21T21:07:40.745Z,15.63
2019-01-21T21:10:16.419Z,15.20
2019-01-21T21:12:49.389Z,16.30
2019-01-21T21:15:26.788Z,16.93
2019-01-21T21:18:00.680Z,16.93
2019-01-21T21:20:34.516Z,15.43
2019-01-21T21:23:07.638Z,15.53
2019-01-21T21:25:39.722Z,16.80
2019-01-21T21:28:14.479Z,17.60
2019-01-21T21:30:46.787Z,15.80
2019-01-21T21:33:18.182Z,15.83
2019-01-21T21:35:51.745Z,16.40
2019-01-21T21:38:23.720Z,16.83
2019-01-21T21:40:56.689Z,17.93
2019-01-21T21:46:53.101Z,15.63
2019-01-21T21:49:24.739Z,13.50
2019-01-21T21:51:57.839Z,15.00
2019-01-21T21:54:31.962Z,16.20
2019-01-21T21:57:04.096Z,16.50
2019-01-21T21:59:36.657Z,17.10
2019-01-21T22:02:08.371Z,13.03
2019-01-21T22:04:41.775Z,14.93
2019-01-21T22:07:16.166Z,15.17
2019-01-21T22:09:48.990Z,17.17
2019-01-21T22:12:21.878Z,15.87
2019-01-21T22:14:54.873Z,14.50
2019-01-21T22:17:29.075Z,14.67
2019-01-21T22:20:01.906Z,15.60
2019-01-21T22:22:34.878Z,13.53
2019-01-21T22:25:08.319Z,12.83
2019-01-21T22:27:41.962Z,11.77
2019-01-21T22:30:18.521Z,13.13
2019-01-21T22:32:49.768Z,12.90
2019-01-21T22:35:21.011Z,12.37
2019-01-21T22:37:55.023Z,11.93
2019-01-21T22:40:29.046Z,12.53
2019-01-21T22:43:01.842Z,13.10
2019-01-21T22:45:34.216Z,11.90
2019-01-21T22:48:07.215Z,11.07
2019-01-21T22:50:40.208Z,10.37
2019-01-21T22:53:13.191Z,10.67
2019-01-21T22:55:47.162Z,12.60
2019-01-21T22:58:23.042Z,11.87
2019-01-21T23:01:11.443Z,15.13
2019-01-21T23:03:44.182Z,13.90
2019-01-21T23:06:18.226Z,11.50
2019-01-21T23:08:53.707Z,11.20
2019-01-21T23:11:26.033Z,11.23
2019-01-21T23:13:57.502Z,9.50
2019-01-21T23:16:32.057Z,11.00
2019-01-21T23:19:04.805Z,10.67
2019-01-21T23:21:36.014Z,10.67
2019-01-21T23:24:10.264Z,10.60
2019-01-21T23:26:44.094Z,10.43
2019-01-21T23:29:16.223Z,10.00
2019-01-21T23:31:49.228Z,11.10
2019-01-21T23:34:20.472Z,12.00
2019-01-21T23:36:55.952Z,9.90
2019-01-21T23:39:28.732Z,9.90
2019-01-21T23:42:03.804Z,9.80
2019-01-21T23:44:36.243Z,10.83
2019-01-21T23:47:09.680Z,9.20
2019-01-21T23:49:40.895Z,9.80
2019-01-21T23:52:14.561Z,9.40
2019-01-21T23:54:48.216Z,8.50
2019-01-21T23:57:22.388Z,9.40
2019-01-21T23:59:58.253Z,8.70
